Time;durP1;ratioP1;P1;durP2;ratioP2;P2;SDS_P1;SDS_P2;PMS_P1;PMS_P2;Temp;Humidity;BMP_temperature;BMP_pressure;BME280_temperature;BME280_humidity;BME280_pressure;Samples;Min_cycle;Max_cycle;Signal;HPM_P1;HPM_P2
2022/04/13 00:02:02;;;;;;;;;4.25;2.75;;;;;20.61;39.30;100767.69;5075247;27;45281;-57
2022/04/13 00:04:27;;;;;;;;;4.75;3.50;;;;;20.60;39.66;100773.88;5074367;28;45469;-50
2022/04/13 00:06:53;;;;;;;;;4.00;4.00;;;;;20.61;39.55;100774.75;5075026;27;45312;-53
2022/04/13 00:09:19;;;;;;;;;3.00;3.00;;;;;20.60;39.18;100773.88;5073747;28;45698;-60
2022/04/13 00:11:44;;;;;;;;;3.50;3.25;;;;;20.61;39.50;100780.00;5090636;27;46114;-53
2022/04/13 00:14:09;;;;;;;;;3.50;3.50;;;;;20.61;39.46;100785.28;5075190;27;45373;-45
2022/04/13 00:16:35;;;;;;;;;4.00;4.00;;;;;20.60;39.50;100784.41;5075214;27;45598;-46
2022/04/13 00:19:00;;;;;;;;;4.25;4.00;;;;;20.60;39.60;100788.84;5033786;27;1181256;-50
2022/04/13 00:21:25;;;;;;;;;4.75;4.00;;;;;20.60;39.19;100787.03;5076637;27;45425;-54
2022/04/13 00:23:51;;;;;;;;;6.00;4.00;;;;;20.61;39.73;100795.81;5076625;27;45600;-60
2022/04/13 00:26:16;;;;;;;;;4.00;4.00;;;;;20.60;39.28;100794.09;5076674;27;45302;-60
2022/04/13 00:28:41;;;;;;;;;4.00;4.00;;;;;20.58;39.75;100790.72;5076125;27;45412;-59
2022/04/13 00:31:07;;;;;;;;;3.00;3.00;;;;;20.60;39.46;100802.84;5076277;27;45430;-63
2022/04/13 00:33:33;;;;;;;;;4.75;4.00;;;;;20.60;39.61;100802.00;5076384;27;45244;-69
2022/04/13 00:35:59;;;;;;;;;3.00;3.00;;;;;20.60;39.58;100800.22;5076976;27;45561;-57
2022/04/13 00:38:24;;;;;;;;;5.75;5.75;;;;;20.60;39.40;100810.75;5076024;28;46173;-62
2022/04/13 00:40:50;;;;;;;;;3.00;2.75;;;;;20.60;39.55;100805.47;5076207;27;45778;-61
2022/04/13 00:43:16;;;;;;;;;2.75;2.25;;;;;20.59;39.34;100809.03;5091882;27;45365;-67
2022/04/13 00:45:48;;;;;;;;;4.00;4.00;;;;;20.58;39.32;100796.81;5076494;27;45314;-70
2022/04/13 00:48:30;;;;;;;;;5.00;4.00;;;;;20.60;39.39;100802.00;5076020;27;45220;-66
2022/04/13 00:50:55;;;;;;;;;3.00;3.00;;;;;20.60;39.08;100796.75;5076512;27;45599;-68
2022/04/13 00:53:23;;;;;;;;;3.25;3.25;;;;;20.59;39.60;100787.97;5076116;27;45763;-59
2022/04/13 00:55:50;;;;;;;;;2.00;2.00;;;;;20.59;39.65;100790.59;5076128;27;45248;-70
2022/04/13 00:58:19;;;;;;;;;4.00;3.25;;;;;20.59;39.41;100782.72;5075875;27;45278;-69
2022/04/13 01:00:48;;;;;;;;;3.25;3.25;;;;;20.61;39.41;100794.00;5075864;27;45373;-68
2022/04/13 01:03:24;;;;;;;;;4.50;4.50;;;;;20.61;39.86;100794.00;5074588;28;45334;-59
2022/04/13 01:05:51;;;;;;;;;4.75;4.00;;;;;20.61;39.64;100786.09;5076150;27;45243;-68
2022/04/13 01:08:19;;;;;;;;;5.50;3.00;;;;;20.62;39.57;100790.44;5075542;27;45318;-67
2022/04/13 01:10:46;;;;;;;;;4.00;4.00;;;;;20.61;39.57;100796.63;5075796;27;45331;-65
2022/04/13 01:13:13;;;;;;;;;3.00;3.00;;;;;20.61;39.65;100796.63;5075954;27;45360;-65
2022/04/13 01:15:38;;;;;;;;;4.25;4.25;;;;;20.61;39.28;100796.63;5076136;27;45522;-66
2022/04/13 01:18:04;;;;;;;;;4.25;3.00;;;;;20.62;40.12;100794.84;5076185;27;45293;-61
2022/04/13 01:20:29;;;;;;;;;2.75;2.75;;;;;20.62;39.51;100792.22;5079556;27;45277;-67
2022/04/13 01:22:55;;;;;;;;;4.50;3.75;;;;;20.61;39.34;100790.53;5079213;27;45272;-62
2022/04/13 01:25:20;;;;;;;;;4.75;3.00;;;;;20.60;39.77;100794.94;5079413;27;45627;-65
2022/04/13 01:27:46;;;;;;;;;3.25;3.25;;;;;20.60;39.78;100797.56;5078885;27;46410;-64
2022/04/13 01:30:12;;;;;;;;;4.50;3.00;;;;;20.60;39.66;100797.56;5078827;27;45326;-66
2022/04/13 01:32:38;;;;;;;;;4.50;3.00;;;;;20.59;39.66;100798.50;5079146;27;45456;-67
2022/04/13 01:35:04;;;;;;;;;3.75;3.75;;;;;20.60;39.59;100808.09;5079262;27;45652;-66
2022/04/13 01:37:29;;;;;;;;;5.25;4.50;;;;;20.61;39.88;100806.34;5077719;28;46838;-72
2022/04/13 01:39:55;;;;;;;;;3.50;3.50;;;;;20.60;39.94;100808.09;5078854;27;45304;-66
2022/04/13 01:42:21;;;;;;;;;3.00;2.00;;;;;20.60;39.87;100805.47;5079043;27;45339;-72
2022/04/13 01:44:48;;;;;;;;;3.00;3.00;;;;;20.60;39.89;100809.91;5079109;27;45444;-71
2022/04/13 01:47:13;;;;;;;;;3.00;3.00;;;;;20.60;39.82;100809.91;5078582;27;46207;-69
2022/04/13 01:49:39;;;;;;;;;3.00;3.00;;;;;20.60;39.34;100815.16;5078602;27;45251;-64
2022/04/13 01:52:05;;;;;;;;;3.00;2.00;;;;;20.60;39.40;100809.91;5078861;27;45161;-55
2022/04/13 01:54:31;;;;;;;;;2.25;2.00;;;;;20.59;39.35;100818.75;5079214;27;45450;-67
2022/04/13 01:56:57;;;;;;;;;4.75;4.75;;;;;20.60;39.79;100813.38;5078393;27;46576;-68
2022/04/13 01:59:23;;;;;;;;;3.00;3.00;;;;;20.60;39.91;100818.63;5077255;27;45398;-65
2022/04/13 02:01:48;;;;;;;;;1.75;1.75;;;;;20.59;39.48;100824.00;5078693;27;45367;-66
2022/04/13 02:04:19;;;;;;;;;2.25;2.25;;;;;20.60;39.91;100825.69;5078695;27;45622;-60
2022/04/13 02:06:44;;;;;;;;;1.75;1.75;;;;;20.59;39.81;100829.28;5078305;27;46576;-65
2022/04/13 02:09:10;;;;;;;;;4.25;2.25;;;;;20.59;39.41;100829.28;5078258;27;45272;-64
2022/04/13 02:11:35;;;;;;;;;2.00;2.00;;;;;20.59;39.59;100830.09;5078662;27;45339;-63
2022/04/13 02:14:00;;;;;;;;;5.50;2.50;;;;;20.59;39.41;100824.00;5078869;27;45418;-72
2022/04/13 02:16:26;;;;;;;;;3.00;3.00;;;;;20.59;39.35;100835.38;5078359;27;45276;-70
2022/04/13 02:18:51;;;;;;;;;3.00;3.00;;;;;20.58;39.48;100836.31;5078000;27;45316;-66
2022/04/13 02:21:16;;;;;;;;;3.00;3.00;;;;;20.60;39.41;100838.88;5078151;28;45153;-70
2022/04/13 02:23:42;;;;;;;;;3.00;3.00;;;;;20.58;40.03;100833.66;5077184;27;45300;-67
2022/04/13 02:26:08;;;;;;;;;4.00;2.00;;;;;20.59;39.94;100835.38;5077953;27;46604;-71
2022/04/13 02:28:33;;;;;;;;;3.00;3.00;;;;;20.58;39.40;100833.66;5078093;27;45429;-67
2022/04/13 02:30:58;;;;;;;;;3.00;3.00;;;;;20.59;39.46;100840.63;5077031;27;45394;-69
2022/04/13 02:33:24;;;;;;;;;2.00;2.00;;;;;20.58;39.53;100843.38;5078262;27;45441;-66
2022/04/13 02:35:49;;;;;;;;;3.25;2.00;;;;;20.58;39.67;100843.38;5077758;27;46339;-70
2022/04/13 02:38:16;;;;;;;;;3.50;2.50;;;;;20.59;40.07;100852.97;5078078;27;45387;-70
2022/04/13 02:40:43;;;;;;;;;3.00;3.00;;;;;20.59;39.66;100839.81;5078021;27;45419;-66
2022/04/13 02:43:08;;;;;;;;;3.25;3.00;;;;;20.59;39.88;100850.34;5078197;27;45170;-57
2022/04/13 02:45:35;;;;;;;;;3.00;3.00;;;;;20.58;39.73;100849.47;5077898;27;46457;-62
2022/04/13 02:48:00;;;;;;;;;5.50;4.00;;;;;20.59;39.81;100845.91;5077743;27;45905;-55
2022/04/13 02:50:26;;;;;;;;;4.00;3.50;;;;;20.58;39.94;100838.94;5077838;27;45371;-54
2022/04/13 02:52:54;;;;;;;;;2.00;2.00;;;;;20.59;40.20;100839.81;5077889;27;45586;-56
2022/04/13 02:55:20;;;;;;;;;3.00;2.00;;;;;20.59;40.01;100840.63;5093380;27;46109;-50
2022/04/13 02:57:45;;;;;;;;;5.25;2.00;;;;;20.55;40.10;100828.59;5077474;27;45403;-45
2022/04/13 03:00:11;;;;;;;;;1.75;1.75;;;;;20.58;39.63;100841.56;5077613;27;45346;-45
2022/04/13 03:02:39;;;;;;;;;4.00;1.50;;;;;20.58;39.39;100838.94;5078154;27;45721;-43
2022/04/13 03:05:05;;;;;;;;;4.00;2.75;;;;;20.56;39.67;100830.25;5076383;28;45255;-49
2022/04/13 03:07:32;;;;;;;;;2.50;2.50;;;;;20.58;40.14;100841.56;5077443;27;45694;-44
2022/04/13 03:09:58;;;;;;;;;2.50;2.00;;;;;20.58;39.75;100846.00;5077572;27;45291;-52
2022/04/13 03:12:24;;;;;;;;;2.25;2.25;;;;;20.58;40.03;100853.91;5077634;27;45309;-57
2022/04/13 03:14:50;;;;;;;;;2.50;2.00;;;;;20.58;39.96;100848.63;5077279;27;45951;-49
2022/04/13 03:17:15;;;;;;;;;2.25;2.25;;;;;20.53;40.14;100852.34;5077316;27;45416;-55
2022/04/13 03:19:40;;;;;;;;;1.25;1.25;;;;;20.57;39.56;100858.28;5077068;27;45445;-49
2022/04/13 03:22:06;;;;;;;;;2.00;2.00;;;;;20.57;40.16;100866.19;5077999;27;45257;-50
2022/04/13 03:24:33;;;;;;;;;3.25;3.00;;;;;20.59;40.02;100872.22;5077280;27;45340;-52
2022/04/13 03:26:59;;;;;;;;;1.75;1.75;;;;;20.58;40.09;100869.69;5075982;28;45753;-45
2022/04/13 03:29:24;;;;;;;;;2.75;2.50;;;;;20.59;40.29;100872.22;5076003;28;45292;-62
2022/04/13 03:31:49;;;;;;;;;2.00;2.00;;;;;20.59;39.47;100881.94;5077286;27;45301;-54
2022/04/13 03:34:20;;;;;;;;;2.00;2.00;;;;;20.59;39.78;100877.50;5077035;27;45337;-66
2022/04/13 03:36:46;;;;;;;;;2.00;2.00;;;;;20.58;39.79;100880.22;5076944;27;45883;-64
2022/04/13 03:39:11;;;;;;;;;2.00;2.00;;;;;20.57;39.92;100887.25;5077245;27;45369;-70
2022/04/13 03:41:37;;;;;;;;;2.75;2.00;;;;;20.59;40.22;100890.66;5077287;27;45608;-66
2022/04/13 03:44:03;;;;;;;;;1.00;1.00;;;;;20.58;40.15;100888.97;5076809;27;45321;-57
2022/04/13 03:46:29;;;;;;;;;3.25;2.00;;;;;20.57;40.28;100889.91;5076883;27;45722;-69
2022/04/13 03:48:54;;;;;;;;;2.75;2.75;;;;;20.57;40.05;100889.91;5076900;27;45804;-67
2022/04/13 03:51:19;;;;;;;;;2.50;2.00;;;;;20.55;40.24;100884.72;5077120;27;45592;-64
2022/04/13 03:53:45;;;;;;;;;1.50;1.50;;;;;20.58;40.15;100888.13;5076693;27;46311;-66
2022/04/13 03:56:10;;;;;;;;;1.00;1.00;;;;;20.57;40.32;100889.91;5076739;27;45371;-63
2022/04/13 03:58:35;;;;;;;;;2.00;2.00;;;;;20.59;40.33;100897.72;5077203;27;45389;-70
2022/04/13 04:01:01;;;;;;;;;2.00;2.00;;;;;20.57;39.59;100889.91;5076988;27;45573;-68
2022/04/13 04:03:26;;;;;;;;;2.75;2.75;;;;;20.57;39.70;100895.16;5076372;27;49448;-69
2022/04/13 04:05:53;;;;;;;;;3.00;2.25;;;;;20.59;39.93;100900.38;5076606;27;45249;-66
2022/04/13 04:08:18;;;;;;;;;5.00;3.25;;;;;20.58;40.07;100896.88;5076677;28;45565;-63
2022/04/13 04:10:44;;;;;;;;;2.00;2.00;;;;;20.59;40.23;100897.72;5076770;27;45585;-64
2022/04/13 04:13:09;;;;;;;;;3.25;1.75;;;;;20.59;40.26;100901.19;5076756;27;47014;-69
2022/04/13 04:15:34;;;;;;;;;3.00;3.00;;;;;20.59;40.18;100903.00;5076659;27;45319;-64
2022/04/13 04:18:00;;;;;;;;;3.75;2.00;;;;;20.60;39.94;100899.44;5076441;27;45373;-59
2022/04/13 04:20:25;;;;;;;;;2.50;2.00;;;;;20.58;40.45;100896.88;5076846;27;45370;-65
2022/04/13 04:22:50;;;;;;;;;1.00;1.00;;;;;20.59;40.46;100909.09;5076462;27;46102;-61
2022/04/13 04:25:16;;;;;;;;;2.00;2.00;;;;;20.59;40.35;100911.72;5076044;28;50087;-63
2022/04/13 04:27:41;;;;;;;;;2.50;2.50;;;;;20.58;40.08;100910.03;5076669;27;45283;-49
2022/04/13 04:30:07;;;;;;;;;2.00;2.00;;;;;20.60;40.52;100921.34;5076822;27;45306;-51
2022/04/13 04:32:33;;;;;;;;;3.75;2.00;;;;;20.59;40.47;100924.06;5076154;28;46170;-61
2022/04/13 04:34:58;;;;;;;;;2.75;2.75;;;;;20.58;40.78;100919.72;5076181;27;45354;-67
2022/04/13 04:37:23;;;;;;;;;2.00;2.00;;;;;20.59;40.58;100922.25;5076355;27;45224;-64
2022/04/13 04:39:49;;;;;;;;;5.00;3.00;;;;;20.58;40.80;100930.25;5076427;27;45232;-63
2022/04/13 04:42:14;;;;;;;;;2.00;2.00;;;;;20.57;41.43;100928.56;5076029;27;45358;-65
2022/04/13 04:44:39;;;;;;;;;4.00;4.00;;;;;20.57;41.52;100934.66;5076333;27;45306;-64
2022/04/13 04:47:05;;;;;;;;;2.25;2.00;;;;;20.55;41.50;100926.03;5076266;27;45342;-63
2022/04/13 04:49:30;;;;;;;;;2.00;2.00;;;;;20.54;41.81;100926.94;5076196;27;45220;-69
2022/04/13 04:51:56;;;;;;;;;2.00;2.00;;;;;20.54;41.77;100927.78;5075823;27;45458;-57
2022/04/13 04:54:21;;;;;;;;;5.50;5.00;;;;;20.54;42.28;100927.78;5077195;27;45375;-59
2022/04/13 04:56:47;;;;;;;;;2.25;1.50;;;;;20.54;42.19;100921.69;5079630;27;45321;-47
2022/04/13 04:59:15;;;;;;;;;4.00;4.00;;;;;20.52;42.43;100924.38;5080137;27;45224;-63
2022/04/13 05:01:40;;;;;;;;;3.00;2.75;;;;;20.52;42.38;100934.91;5079600;27;46148;-54
2022/04/13 05:04:06;;;;;;;;;2.50;2.50;;;;;20.51;42.68;100932.38;5079313;27;45508;-48
2022/04/13 05:06:31;;;;;;;;;3.00;3.00;;;;;20.50;42.84;100933.31;5079447;27;45353;-55
2022/04/13 05:08:57;;;;;;;;;2.00;2.00;;;;;20.50;42.44;100934.16;5079540;27;45603;-52
2022/04/13 05:11:22;;;;;;;;;2.75;2.75;;;;;20.50;42.63;100938.56;5079268;27;45476;-55
2022/04/13 05:13:48;;;;;;;;;2.50;2.50;;;;;20.48;43.33;100940.44;5079220;27;45467;-59
2022/04/13 05:16:15;;;;;;;;;5.00;2.00;;;;;20.49;43.04;100945.63;5079308;27;45352;-47
2022/04/13 05:18:42;;;;;;;;;4.00;3.00;;;;;20.49;43.02;100950.03;5078321;28;45282;-51
2022/04/13 05:21:08;;;;;;;;;3.00;3.00;;;;;20.49;43.14;100947.41;5094761;27;47490;-50
2022/04/13 05:23:33;;;;;;;;;2.75;2.75;;;;;20.48;43.23;100953.59;5079090;27;45483;-62
2022/04/13 05:25:59;;;;;;;;;5.75;3.00;;;;;20.47;43.15;100952.75;5079229;27;45357;-62
2022/04/13 05:28:24;;;;;;;;;7.00;3.00;;;;;20.46;43.19;100951.06;5079270;27;45388;-61
2022/04/13 05:30:50;;;;;;;;;4.00;3.75;;;;;20.46;43.42;100947.56;5078885;27;46639;-70
2022/04/13 05:33:15;;;;;;;;;5.00;4.00;;;;;20.44;43.86;100946.81;5078923;27;45444;-64
2022/04/13 05:35:41;;;;;;;;;6.00;6.00;;;;;20.45;43.60;100948.50;5079426;27;45355;-59
2022/04/13 05:38:06;;;;;;;;;5.75;4.50;;;;;20.44;43.78;100952.06;5079203;27;45495;-61
2022/04/13 05:40:32;;;;;;;;;4.00;4.00;;;;;20.43;43.90;100945.09;5078668;27;45978;-58
2022/04/13 05:42:57;;;;;;;;;7.00;3.00;;;;;20.43;44.22;100951.19;5094084;27;45524;-60
2022/04/13 05:45:23;;;;;;;;;4.75;4.25;;;;;20.43;44.14;100955.63;5078816;27;45334;-65
2022/04/13 05:47:48;;;;;;;;;4.00;3.00;;;;;20.43;43.83;100955.63;5079051;27;45345;-66
2022/04/13 05:50:14;;;;;;;;;3.00;3.00;;;;;20.43;43.88;100958.28;5078808;27;46302;-67
2022/04/13 05:52:41;;;;;;;;;5.00;3.75;;;;;20.44;43.78;100967.88;5078571;27;45796;-63
2022/04/13 05:55:08;;;;;;;;;3.75;3.75;;;;;20.42;43.83;100964.47;5078860;27;45339;-64
2022/04/13 05:57:33;;;;;;;;;5.00;4.75;;;;;20.42;43.89;100964.47;5077491;28;45560;-62
2022/04/13 05:59:59;;;;;;;;;5.00;3.25;;;;;20.40;44.06;100961.88;5078273;27;46601;-63
2022/04/13 06:02:24;;;;;;;;;3.00;3.00;;;;;20.41;44.19;100978.56;5078486;28;45401;-67
2022/04/13 06:04:49;;;;;;;;;3.00;3.00;;;;;20.41;44.01;100981.19;5078383;27;45440;-59
2022/04/13 06:07:15;;;;;;;;;2.50;2.50;;;;;20.41;43.97;100978.56;5079098;27;45592;-59
2022/04/13 06:09:40;;;;;;;;;3.00;3.00;;;;;20.41;44.58;100992.56;5078589;27;46548;-56
2022/04/13 06:12:06;;;;;;;;;3.75;3.25;;;;;20.41;44.24;100989.09;5078484;27;45886;-63
2022/04/13 06:14:32;;;;;;;;;2.50;2.00;;;;;20.41;44.14;100996.97;5078353;27;45440;-53
2022/04/13 06:16:57;;;;;;;;;7.25;4.00;;;;;20.41;44.30;100996.97;5094274;27;45347;-62
2022/04/13 06:19:23;;;;;;;;;3.00;3.00;;;;;20.39;44.35;100997.06;5078093;27;47106;-60
2022/04/13 06:21:48;;;;;;;;;2.00;2.00;;;;;20.40;44.47;101004.00;5078022;28;50923;-64
2022/04/13 06:24:13;;;;;;;;;4.00;4.00;;;;;20.41;44.51;101002.25;5077308;28;45277;-64
2022/04/13 06:26:39;;;;;;;;;4.75;3.25;;;;;20.42;44.83;101006.59;5077119;28;45574;-63
2022/04/13 06:29:04;;;;;;;;;4.50;4.00;;;;;20.42;44.45;101011.84;5077916;27;46022;-59
2022/04/13 06:31:30;;;;;;;;;4.00;4.00;;;;;20.41;44.54;101012.78;5078083;27;45402;-63
2022/04/13 06:33:56;;;;;;;;;2.75;2.75;;;;;20.41;44.07;101025.94;5078148;28;45434;-61
2022/04/13 06:36:21;;;;;;;;;6.00;4.00;;;;;20.42;44.54;101030.28;5078278;27;45687;-63
2022/04/13 06:38:47;;;;;;;;;5.00;3.50;;;;;20.41;44.60;101025.94;5078490;27;46304;-58
2022/04/13 06:41:13;;;;;;;;;6.75;5.00;;;;;20.42;45.06;101027.63;5078444;27;45200;-47
2022/04/13 06:43:39;;;;;;;;;5.25;3.75;;;;;20.41;45.00;101032.03;5078008;27;45336;-46
2022/04/13 06:46:05;;;;;;;;;3.00;3.00;;;;;20.42;44.92;101038.16;5078147;27;45427;-63
2022/04/13 06:48:31;;;;;;;;;6.25;4.25;;;;;20.42;44.58;101046.06;5077760;28;45347;-60
2022/04/13 06:50:57;;;;;;;;;6.00;4.00;;;;;20.42;44.81;101043.44;5093636;27;45329;-61
2022/04/13 06:53:23;;;;;;;;;6.25;6.25;;;;;20.42;45.25;101056.59;5077857;27;45986;-69
2022/04/13 06:55:48;;;;;;;;;3.00;3.00;;;;;20.40;44.78;101061.94;5078103;27;45397;-44
2022/04/13 06:58:15;;;;;;;;;6.00;5.00;;;;;20.41;45.25;101074.16;5077459;27;45704;-62
2022/04/13 07:00:40;;;;;;;;;7.75;6.00;;;;;20.41;45.38;101079.44;5077578;27;45404;-67
2022/04/13 07:03:05;;;;;;;;;7.75;5.25;;;;;20.41;45.27;101082.06;5077508;27;45213;-65
2022/04/13 07:05:31;;;;;;;;;7.25;6.25;;;;;20.41;45.14;101087.31;5077677;27;45416;-67
2022/04/13 07:07:57;;;;;;;;;8.25;6.25;;;;;20.39;45.25;101092.69;5077218;28;45422;-64
2022/04/13 07:10:23;;;;;;;;;9.50;5.00;;;;;20.40;45.67;101098.78;5077354;27;45769;-60
2022/04/13 07:12:49;;;;;;;;;8.50;6.00;;;;;20.41;45.74;101104.91;5077807;27;45343;-59
2022/04/13 07:15:17;;;;;;;;;5.00;5.00;;;;;20.39;45.95;101110.28;5077652;27;45345;-61
2022/04/13 07:17:44;;;;;;;;;9.25;6.50;;;;;20.42;46.12;101125.06;5075476;27;45425;-64
2022/04/13 07:20:10;;;;;;;;;6.00;4.00;;;;;20.42;46.15;101120.63;5077173;27;45324;-55
2022/04/13 07:22:43;;;;;;;;;6.50;6.00;;;;;20.44;47.11;101126.66;5077379;27;45450;-59
2022/04/13 07:25:09;;;;;;;;;10.75;8.50;;;;;20.46;47.46;101121.31;5077565;27;45258;-62
2022/04/13 07:27:34;;;;;;;;;7.25;7.25;;;;;20.48;47.40;101135.25;5077074;28;45322;-66
2022/04/13 07:29:59;;;;;;;;;8.75;7.50;;;;;20.49;47.45;101129.06;5077075;27;45456;-68
2022/04/13 07:32:25;;;;;;;;;10.50;9.50;;;;;20.48;47.60;101127.38;5077403;28;45366;-68
2022/04/13 07:34:50;;;;;;;;;10.00;8.25;;;;;20.52;47.50;101131.56;5077923;27;45467;-66
2022/04/13 07:37:15;;;;;;;;;9.00;7.00;;;;;20.50;48.20;101131.66;5077238;27;46011;-70
2022/04/13 07:39:41;;;;;;;;;7.25;6.00;;;;;20.53;47.76;101142.00;5076936;28;45240;-62
2022/04/13 07:42:06;;;;;;;;;8.75;8.00;;;;;20.52;47.42;101132.38;5077100;27;45760;-63
2022/04/13 07:44:31;;;;;;;;;5.50;4.00;;;;;20.52;47.17;101124.50;5075891;28;45450;-65
2022/04/13 07:46:57;;;;;;;;;12.25;7.00;;;;;20.54;47.33;101132.34;5076864;27;45392;-54
2022/04/13 07:49:22;;;;;;;;;7.00;7.00;;;;;20.55;47.72;101128.78;5076784;27;45333;-59
2022/04/13 07:51:48;;;;;;;;;8.75;7.25;;;;;20.57;47.85;101132.16;5092808;27;45336;-63
2022/04/13 07:54:13;;;;;;;;;7.00;6.75;;;;;20.62;48.22;101138.06;5076928;27;45307;-52
2022/04/13 07:56:40;;;;;;;;;8.50;7.25;;;;;20.65;47.47;101140.53;5076491;27;45370;-59
2022/04/13 07:59:05;;;;;;;;;8.25;7.00;;;;;20.70;47.10;101132.41;5075279;28;45912;-71
2022/04/13 08:01:31;;;;;;;;;7.50;5.00;;;;;20.75;47.44;101138.31;5076804;27;45378;-55
2022/04/13 08:03:59;;;;;;;;;9.00;6.50;;;;;20.79;47.21;101129.31;5092596;27;45567;-52
2022/04/13 08:06:25;;;;;;;;;5.00;5.00;;;;;20.84;47.14;101132.56;5066182;27;45931;-60
2022/04/13 08:08:52;;;;;;;;;5.50;5.00;;;;;20.88;47.09;101142.94;4995159;27;45358;-45
2022/04/13 08:11:17;;;;;;;;;8.50;6.25;;;;;20.88;46.82;101135.03;4973886;28;45396;-43
2022/04/13 08:13:43;;;;;;;;;6.25;5.25;;;;;20.87;46.66;101138.59;4974187;28;45239;-62
2022/04/13 08:16:08;;;;;;;;;9.00;6.25;;;;;20.86;46.77;101143.03;4973633;28;45454;-63
2022/04/13 08:18:33;;;;;;;;;4.75;3.25;;;;;20.84;46.37;101145.72;4973593;28;47924;-62
2022/04/13 08:20:59;;;;;;;;;6.50;6.00;;;;;20.83;46.34;101148.44;4973691;28;45330;-57
2022/04/13 08:23:24;;;;;;;;;13.75;9.00;;;;;20.82;46.62;101150.25;4973678;28;45454;-46
2022/04/13 08:25:50;;;;;;;;;7.50;6.00;;;;;20.82;45.87;101163.41;4972361;28;46384;-55
2022/04/13 08:28:15;;;;;;;;;10.75;8.50;;;;;20.82;46.60;101154.66;4972427;28;45395;-52
2022/04/13 08:30:40;;;;;;;;;7.25;7.00;;;;;20.82;46.53;101157.28;4973689;28;45482;-52
2022/04/13 08:33:06;;;;;;;;;13.25;7.00;;;;;20.82;45.89;101150.25;4966659;28;45449;-61
2022/04/13 08:35:31;;;;;;;;;14.25;8.00;;;;;20.84;45.99;101158.91;4969527;28;48392;-57
2022/04/13 08:37:56;;;;;;;;;6.00;5.75;;;;;20.85;46.15;101162.41;4975833;28;45284;-48
2022/04/13 08:40:22;;;;;;;;;9.25;6.00;;;;;20.88;46.05;101171.91;4975209;28;45400;-46
2022/04/13 08:42:53;;;;;;;;;7.75;6.50;;;;;20.89;46.14;101173.63;4976363;28;45383;-58
2022/04/13 08:45:22;;;;;;;;;9.00;7.25;;;;;20.88;45.94;101172.78;4975076;28;47680;-45
2022/04/13 08:47:49;;;;;;;;;5.50;5.50;;;;;20.88;45.53;101187.72;4976426;28;45471;-49
2022/04/13 08:50:14;;;;;;;;;8.50;7.00;;;;;20.87;46.02;101186.88;4976290;28;45386;-63
2022/04/13 08:52:41;;;;;;;;;10.50;7.25;;;;;20.88;45.28;101190.34;4976331;28;45323;-49
2022/04/13 08:55:14;;;;;;;;;5.50;5.50;;;;;20.89;45.66;101195.53;4956530;28;45649;-56
2022/04/13 08:57:45;;;;;;;;;7.75;5.25;;;;;20.88;45.26;101199.13;4957089;28;45856;-56
2022/04/13 09:00:13;;;;;;;;;8.25;7.00;;;;;20.89;45.65;101205.25;4957310;28;45410;-46
2022/04/13 09:02:54;;;;;;;;;7.25;6.00;;;;;20.89;45.50;101207.88;4957148;28;45221;-55
2022/04/13 09:05:28;;;;;;;;;7.25;6.25;;;;;20.91;45.87;101217.41;4957281;28;45384;-51
2022/04/13 09:08:21;;;;;;;;;5.00;5.00;;;;;20.91;45.74;101216.56;4957420;28;46077;-63
2022/04/13 09:10:48;;;;;;;;;6.00;6.00;;;;;20.91;45.37;101217.41;4949406;28;45403;-60
2022/04/13 09:13:21;;;;;;;;;8.75;6.25;;;;;20.91;45.64;101229.72;4957294;28;45427;-47
2022/04/13 09:15:47;;;;;;;;;8.75;5.00;;;;;20.88;45.72;101220.22;4956772;28;46229;-58
2022/04/13 09:18:13;;;;;;;;;6.75;6.25;;;;;20.88;45.76;101232.50;4939138;28;45701;-55
2022/04/13 09:20:39;;;;;;;;;5.00;4.00;;;;;20.87;45.15;101231.69;4956870;28;45632;-67
2022/04/13 09:23:06;;;;;;;;;11.75;5.25;;;;;20.87;45.34;101229.03;4956933;28;45395;-56
2022/04/13 09:25:33;;;;;;;;;5.75;5.75;;;;;20.85;45.62;101238.81;4956564;28;47172;-54
2022/04/13 09:28:00;;;;;;;;;6.00;5.75;;;;;20.85;45.49;101237.00;4956513;28;45348;-50
2022/04/13 09:30:26;;;;;;;;;6.25;6.00;;;;;20.87;45.52;101238.72;4956601;28;45548;-48
2022/04/13 09:32:52;;;;;;;;;8.25;7.25;;;;;20.86;45.16;101243.16;4957194;28;45224;-61
2022/04/13 09:35:19;;;;;;;;;4.50;4.50;;;;;20.86;45.19;101243.16;4956468;28;45493;-59
2022/04/13 09:37:45;;;;;;;;;6.00;6.00;;;;;20.85;45.41;101252.81;4956549;28;45403;-49
2022/04/13 09:40:29;;;;;;;;;6.25;5.25;;;;;20.85;45.47;101249.34;4956248;28;45411;-54
2022/04/13 09:43:03;;;;;;;;;10.00;5.25;;;;;20.84;45.09;101255.53;4956931;28;45288;-47
2022/04/13 09:45:33;;;;;;;;;6.25;5.00;;;;;20.81;45.25;101246.00;4956341;28;46604;-49
2022/04/13 09:47:58;;;;;;;;;8.00;5.00;;;;;20.82;45.27;101257.38;4956387;28;45384;-56
2022/04/13 09:50:25;;;;;;;;;5.00;5.00;;;;;20.82;45.18;101252.13;4955404;28;45305;-61
2022/04/13 09:52:55;;;;;;;;;7.00;5.25;;;;;20.82;45.09;101250.34;4956552;28;45320;-62
2022/04/13 09:55:24;;;;;;;;;5.25;5.00;;;;;20.83;45.37;101256.47;4956077;28;46265;-57
2022/04/13 09:57:50;;;;;;;;;6.25;5.50;;;;;20.80;45.12;101252.22;4956281;28;45736;-63
2022/04/13 10:00:16;;;;;;;;;5.00;5.00;;;;;20.80;45.15;101240.78;4956381;28;45305;-58
2022/04/13 10:02:43;;;;;;;;;5.00;4.50;;;;;20.80;45.39;101246.94;4956443;28;45311;-65
2022/04/13 10:05:14;;;;;;;;;4.75;4.00;;;;;20.81;45.23;101251.28;4955935;28;45209;-61
2022/04/13 10:07:39;;;;;;;;;7.25;5.25;;;;;20.79;45.09;101241.72;4955977;28;45844;-63
2022/04/13 10:10:21;;;;;;;;;7.50;5.25;;;;;20.80;45.34;101253.97;4956063;28;45324;-54
2022/04/13 10:12:47;;;;;;;;;6.50;6.50;;;;;20.81;45.17;101245.13;4956529;28;45536;-58
2022/04/13 10:15:13;;;;;;;;;4.75;4.75;;;;;20.81;45.18;101255.69;4955888;28;45897;-50
2022/04/13 10:17:39;;;;;;;;;4.50;4.25;;;;;20.81;44.96;101251.28;4956007;28;45268;-58
2022/04/13 10:20:05;;;;;;;;;5.25;5.00;;;;;20.81;45.04;101247.78;4956001;28;45469;-66
2022/04/13 10:22:30;;;;;;;;;6.75;4.75;;;;;20.82;45.36;101246.84;4956166;28;45488;-66
2022/04/13 10:24:55;;;;;;;;;3.00;3.00;;;;;20.81;45.36;101251.28;4956073;28;45277;-56
2022/04/13 10:27:25;;;;;;;;;8.00;6.00;;;;;20.83;45.21;101243.28;4955804;28;45296;-56
2022/04/13 10:29:51;;;;;;;;;5.50;5.00;;;;;20.83;45.19;101249.44;4955838;28;45335;-59
2022/04/13 10:32:25;;;;;;;;;6.00;4.50;;;;;20.82;45.63;101249.47;4968245;28;45455;-64
2022/04/13 10:34:56;;;;;;;;;5.75;5.00;;;;;20.84;45.54;101261.63;4973378;28;46053;-65
2022/04/13 10:37:24;;;;;;;;;6.25;5.00;;;;;20.83;45.71;101259.97;4974647;28;45409;-62
2022/04/13 10:39:52;;;;;;;;;7.00;5.00;;;;;20.85;45.91;101262.50;4973836;28;45478;-64
2022/04/13 10:42:19;;;;;;;;;5.00;5.00;;;;;20.84;45.76;101260.81;4974889;28;45422;-59
2022/04/13 10:44:54;;;;;;;;;5.50;5.25;;;;;20.85;45.88;101265.97;4974579;28;46789;-62
2022/04/13 10:47:59;;;;;;;;;6.75;5.50;;;;;20.88;46.26;101265.00;4974871;28;45360;-58
2022/04/13 10:50:48;;;;;;;;;9.75;7.75;;;;;20.89;46.48;101261.41;4981332;28;45397;-48
2022/04/13 10:53:30;;;;;;;;;18.75;15.25;;;;;20.91;46.33;101266.63;4993108;28;45496;-61
2022/04/13 10:56:01;;;;;;;;;49.75;40.25;;;;;20.91;46.20;101266.63;4974498;28;46181;-54
2022/04/13 10:58:32;;;;;;;;;54.25;42.75;;;;;20.94;46.78;101271.75;4975290;28;45952;-61
2022/04/13 11:01:04;;;;;;;;;56.00;44.50;;;;;20.95;47.00;101268.16;4975226;28;45337;-64
2022/04/13 11:03:34;;;;;;;;;58.00;44.75;;;;;20.94;47.13;101259.41;4975146;28;45315;-60
2022/04/13 11:06:01;;;;;;;;;55.50;44.75;;;;;20.97;48.08;101261.91;4973426;28;45640;-58
2022/04/13 11:08:35;;;;;;;;;51.50;42.00;;;;;20.98;47.81;101260.97;4973799;28;45406;-63
2022/04/13 11:11:01;;;;;;;;;45.75;39.25;;;;;20.99;48.76;101261.81;4973412;28;45351;-61
2022/04/13 11:13:32;;;;;;;;;46.25;38.25;;;;;21.01;49.20;101263.44;4974211;28;45343;-59
2022/04/13 11:16:22;;;;;;;;;44.75;35.50;;;;;21.02;49.06;101264.28;4973802;28;48094;-61
2022/04/13 11:19:08;;;;;;;;;42.75;34.00;;;;;21.03;49.56;101267.78;4974460;28;45842;-62
2022/04/13 11:21:55;;;;;;;;;41.25;34.25;;;;;21.03;49.52;101271.28;4981298;28;45506;-55
2022/04/13 11:24:37;;;;;;;;;39.25;32.00;;;;;21.04;48.78;101261.56;4974786;28;45481;-54